Terminal Aerodrome Forecast
Issued by NWS

Current Version | Previous Version | Text Only | Print | Product List | Glossary Off
Versions: 1 2 3 4 5 6 7 8 9 10 11 12 13

000
FTUS44 KSJT 290520
TAFBBD
TAF
KBBD 290520Z 2906/3006 14009KT P6SM OVC018
     FM290800 15009KT P6SM VCTS OVC015CB
     FM291400 16007KT P6SM VCTS OVC015CB
     FM291600 20007KT P6SM VCSH BKN030
     FM291800 24008KT P6SM SCT250
      AMD NOT SKED=

USA.gov is the U.S. government's official web portal to all federal, state and local government web resources and services.